sensor_id;sensor_type;location;lat;lon;timestamp;pressure;altitude;pressure_sealevel;temperature;humidity
45357;BME280;31092;51.924;21.448;2023-02-02T00:00:13;99029.66;;;0.88;100.00
45357;BME280;31092;51.924;21.448;2023-02-02T00:02:38;99010.34;;;0.77;100.00
45357;BME280;31092;51.924;21.448;2023-02-02T00:05:04;98971.66;;;0.55;100.00
45357;BME280;31092;51.924;21.448;2023-02-02T00:07:29;98962.66;;;0.46;100.00
45357;BME280;31092;51.924;21.448;2023-02-02T00:09:55;98994.03;;;0.71;100.00
45357;BME280;31092;51.924;21.448;2023-02-02T00:12:20;98906.97;;;0.27;100.00
45357;BME280;31092;51.924;21.448;2023-02-02T00:14:46;99014.72;;;0.87;100.00
45357;BME280;31092;51.924;21.448;2023-02-02T00:17:11;99027.81;;;0.89;100.00
45357;BME280;31092;51.924;21.448;2023-02-02T00:19:37;98924.63;;;0.16;100.00
45357;BME280;31092;51.924;21.448;2023-02-02T00:22:02;99010.88;;;0.70;100.00
45357;BME280;31092;51.924;21.448;2023-02-02T00:24:28;99023.09;;;0.83;100.00
45357;BME280;31092;51.924;21.448;2023-02-02T00:26:55;99014.56;;;0.79;100.00
45357;BME280;31092;51.924;21.448;2023-02-02T00:29:26;98925.38;;;0.28;100.00
45357;BME280;31092;51.924;21.448;2023-02-02T00:31:52;98935.44;;;0.34;100.00
45357;BME280;31092;51.924;21.448;2023-02-02T00:34:19;98940.34;;;0.39;100.00
45357;BME280;31092;51.924;21.448;2023-02-02T00:36:45;98910.47;;;0.27;100.00
45357;BME280;31092;51.924;21.448;2023-02-02T00:39:15;98965.25;;;0.57;100.00
45357;BME280;31092;51.924;21.448;2023-02-02T00:41:40;99008.06;;;0.93;100.00
45357;BME280;31092;51.924;21.448;2023-02-02T00:44:06;99005.38;;;0.83;100.00
45357;BME280;31092;51.924;21.448;2023-02-02T00:47:06;99012.06;;;0.87;100.00
45357;BME280;31092;51.924;21.448;2023-02-02T00:49:35;98918.31;;;0.38;100.00
45357;BME280;31092;51.924;21.448;2023-02-02T00:52:00;98919.03;;;0.40;100.00
45357;BME280;31092;51.924;21.448;2023-02-02T00:54:26;98772.69;;;-0.42;100.00
45357;BME280;31092;51.924;21.448;2023-02-02T00:56:52;98971.47;;;0.87;100.00
45357;BME280;31092;51.924;21.448;2023-02-02T00:59:17;98983.75;;;0.88;100.00
45357;BME280;31092;51.924;21.448;2023-02-02T01:01:43;98921.88;;;0.58;100.00
45357;BME280;31092;51.924;21.448;2023-02-02T01:04:08;99000.84;;;1.14;100.00
45357;BME280;31092;51.924;21.448;2023-02-02T01:06:34;99005.03;;;1.17;100.00
45357;BME280;31092;51.924;21.448;2023-02-02T01:09:00;98966.28;;;0.85;100.00
45357;BME280;31092;51.924;21.448;2023-02-02T01:11:25;98996.25;;;1.07;100.00
45357;BME280;31092;51.924;21.448;2023-02-02T01:13:51;98986.16;;;1.01;100.00
45357;BME280;31092;51.924;21.448;2023-02-02T01:16:16;98995.81;;;1.11;100.00
45357;BME280;31092;51.924;21.448;2023-02-02T01:18:42;99023.78;;;1.25;100.00
45357;BME280;31092;51.924;21.448;2023-02-02T01:21:10;98925.25;;;0.70;100.00
45357;BME280;31092;51.924;21.448;2023-02-02T01:23:37;98950.13;;;0.88;100.00
45357;BME280;31092;51.924;21.448;2023-02-02T01:26:05;98910.44;;;0.67;100.00
45357;BME280;31092;51.924;21.448;2023-02-02T01:28:31;99018.88;;;1.30;100.00
45357;BME280;31092;51.924;21.448;2023-02-02T01:30:57;98923.72;;;0.77;100.00
45357;BME280;31092;51.924;21.448;2023-02-02T01:33:23;98919.53;;;0.75;100.00
45357;BME280;31092;51.924;21.448;2023-02-02T01:35:52;99006.72;;;1.28;100.00
45357;BME280;31092;51.924;21.448;2023-02-02T01:38:19;98952.38;;;0.93;100.00
45357;BME280;31092;51.924;21.448;2023-02-02T01:40:55;99003.94;;;1.29;100.00
45357;BME280;31092;51.924;21.448;2023-02-02T01:45:56;98972.38;;;1.16;100.00
45357;BME280;31092;51.924;21.448;2023-02-02T01:48:32;98984.41;;;1.30;100.00
45357;BME280;31092;51.924;21.448;2023-02-02T01:51:13;98968.88;;;1.16;100.00
45357;BME280;31092;51.924;21.448;2023-02-02T01:53:41;98898.06;;;0.78;100.00
45357;BME280;31092;51.924;21.448;2023-02-02T01:56:09;98903.38;;;0.78;100.00
45357;BME280;31092;51.924;21.448;2023-02-02T01:58:39;98990.53;;;1.31;100.00
45357;BME280;31092;51.924;21.448;2023-02-02T02:01:06;98938.84;;;0.96;100.00
45357;BME280;31092;51.924;21.448;2023-02-02T02:03:33;98984.81;;;1.26;100.00
45357;BME280;31092;51.924;21.448;2023-02-02T02:06:06;98988.88;;;1.30;100.00
45357;BME280;31092;51.924;21.448;2023-02-02T02:08:48;98987.47;;;1.26;100.00
45357;BME280;31092;51.924;21.448;2023-02-02T02:11:17;99009.53;;;1.26;100.00
45357;BME280;31092;51.924;21.448;2023-02-02T02:13:43;98915.38;;;0.72;100.00
45357;BME280;31092;51.924;21.448;2023-02-02T02:17:00;98913.25;;;0.66;100.00
45357;BME280;31092;51.924;21.448;2023-02-02T02:20:07;99002.69;;;1.14;100.00
45357;BME280;31092;51.924;21.448;2023-02-02T02:39:38;99012.97;;;1.07;100.00
45357;BME280;31092;51.924;21.448;2023-02-02T02:42:13;98983.91;;;0.96;100.00
45357;BME280;31092;51.924;21.448;2023-02-02T02:44:40;98918.41;;;0.58;100.00
45357;BME280;31092;51.924;21.448;2023-02-02T02:47:07;98999.84;;;1.06;100.00
45357;BME280;31092;51.924;21.448;2023-02-02T02:49:41;98994.13;;;1.01;100.00
45357;BME280;31092;51.924;21.448;2023-02-02T02:52:07;98930.81;;;0.67;100.00
45357;BME280;31092;51.924;21.448;2023-02-02T02:54:35;99012.72;;;1.20;100.00
45357;BME280;31092;51.924;21.448;2023-02-02T03:00:00;99017.63;;;1.25;100.00
45357;BME280;31092;51.924;21.448;2023-02-02T03:02:56;99020.41;;;1.23;100.00
45357;BME280;31092;51.924;21.448;2023-02-02T03:11:16;98961.00;;;0.85;100.00
45357;BME280;31092;51.924;21.448;2023-02-02T03:13:42;99029.19;;;1.24;100.00
45357;BME280;31092;51.924;21.448;2023-02-02T03:16:09;99006.28;;;1.13;100.00
45357;BME280;31092;51.924;21.448;2023-02-02T03:18:34;99006.28;;;1.13;100.00
45357;BME280;31092;51.924;21.448;2023-02-02T03:21:00;99006.72;;;1.18;100.00
45357;BME280;31092;51.924;21.448;2023-02-02T03:23:26;98932.09;;;0.73;100.00
45357;BME280;31092;51.924;21.448;2023-02-02T03:25:52;98994.16;;;1.10;100.00
45357;BME280;31092;51.924;21.448;2023-02-02T03:28:18;98902.63;;;0.56;100.00
45357;BME280;31092;51.924;21.448;2023-02-02T03:30:46;98911.69;;;0.63;100.00
45357;BME280;31092;51.924;21.448;2023-02-02T03:33:13;99020.13;;;1.26;100.00
45357;BME280;31092;51.924;21.448;2023-02-02T03:35:39;99029.06;;;1.25;100.00
45357;BME280;31092;51.924;21.448;2023-02-02T03:38:04;99036.06;;;1.26;100.00
45357;BME280;31092;51.924;21.448;2023-02-02T03:40:30;98866.72;;;0.33;100.00
45357;BME280;31092;51.924;21.448;2023-02-02T03:42:55;99004.06;;;1.18;100.00
45357;BME280;31092;51.924;21.448;2023-02-02T03:45:21;99023.63;;;1.27;100.00
45357;BME280;31092;51.924;21.448;2023-02-02T03:47:47;99015.09;;;1.23;100.00
45357;BME280;31092;51.924;21.448;2023-02-02T03:50:12;98936.44;;;0.83;100.00
45357;BME280;31092;51.924;21.448;2023-02-02T03:52:38;98926.25;;;0.79;100.00
45357;BME280;31092;51.924;21.448;2023-02-02T03:55:04;99006.59;;;1.29;100.00
45357;BME280;31092;51.924;21.448;2023-02-02T03:57:30;98896.09;;;0.70;100.00
45357;BME280;31092;51.924;21.448;2023-02-02T03:59:56;98971.69;;;1.14;100.00
45357;BME280;31092;51.924;21.448;2023-02-02T04:02:21;99016.25;;;1.40;100.00
45357;BME280;31092;51.924;21.448;2023-02-02T04:04:47;99018.75;;;1.41;100.00
45357;BME280;31092;51.924;21.448;2023-02-02T04:07:13;98925.72;;;0.94;100.00
45357;BME280;31092;51.924;21.448;2023-02-02T04:09:38;99029.13;;;1.54;100.00
45357;BME280;31092;51.924;21.448;2023-02-02T04:12:04;99014.31;;;1.52;100.00
45357;BME280;31092;51.924;21.448;2023-02-02T04:14:29;98934.94;;;1.10;100.00
45357;BME280;31092;51.924;21.448;2023-02-02T04:16:55;99010.41;;;1.56;100.00
45357;BME280;31092;51.924;21.448;2023-02-02T04:19:20;99016.44;;;1.67;100.00
45357;BME280;31092;51.924;21.448;2023-02-02T04:21:45;98953.28;;;1.32;100.00
45357;BME280;31092;51.924;21.448;2023-02-02T04:24:12;98929.66;;;1.19;100.00
45357;BME280;31092;51.924;21.448;2023-02-02T04:26:38;99011.38;;;1.74;100.00
45357;BME280;31092;51.924;21.448;2023-02-02T04:29:03;98931.91;;;1.24;100.00
45357;BME280;31092;51.924;21.448;2023-02-02T04:31:29;98918.38;;;1.17;100.00
45357;BME280;31092;51.924;21.448;2023-02-02T04:33:56;98986.22;;;1.59;100.00
45357;BME280;31092;51.924;21.448;2023-02-02T04:36:22;98918.94;;;1.21;100.00
45357;BME280;31092;51.924;21.448;2023-02-02T04:38:51;98991.69;;;1.67;100.00
45357;BME280;31092;51.924;21.448;2023-02-02T04:41:18;98930.25;;;1.33;100.00
45357;BME280;31092;51.924;21.448;2023-02-02T04:43:44;98963.78;;;1.53;100.00
45357;BME280;31092;51.924;21.448;2023-02-02T04:46:10;99013.06;;;1.85;100.00
45357;BME280;31092;51.924;21.448;2023-02-02T04:48:39;98940.44;;;1.47;100.00
45357;BME280;31092;51.924;21.448;2023-02-02T04:51:09;99034.44;;;1.93;100.00
45357;BME280;31092;51.924;21.448;2023-02-02T04:53:35;98943.09;;;1.47;100.00
45357;BME280;31092;51.924;21.448;2023-02-02T04:56:10;99014.59;;;1.87;100.00
45357;BME280;31092;51.924;21.448;2023-02-02T04:58:36;98982.47;;;1.71;100.00
45357;BME280;31092;51.924;21.448;2023-02-02T05:01:10;98996.31;;;1.75;100.00
45357;BME280;31092;51.924;21.448;2023-02-02T05:03:35;98991.28;;;1.72;100.00
45357;BME280;31092;51.924;21.448;2023-02-02T05:06:01;99034.84;;;1.88;100.00
45357;BME280;31092;51.924;21.448;2023-02-02T05:08:27;98942.53;;;1.43;100.00
45357;BME280;31092;51.924;21.448;2023-02-02T05:10:52;98988.75;;;1.70;100.00
45357;BME280;31092;51.924;21.448;2023-02-02T05:13:18;98921.56;;;1.31;100.00
45357;BME280;31092;51.924;21.448;2023-02-02T05:15:43;98909.72;;;1.25;100.00
45357;BME280;31092;51.924;21.448;2023-02-02T05:18:09;99017.69;;;1.92;100.00
45357;BME280;31092;51.924;21.448;2023-02-02T05:20:34;98935.97;;;1.38;100.00
45357;BME280;31092;51.924;21.448;2023-02-02T05:23:00;99019.63;;;1.90;100.00
45357;BME280;31092;51.924;21.448;2023-02-02T05:25:25;98953.44;;;1.50;100.00
45357;BME280;31092;51.924;21.448;2023-02-02T05:28:02;99003.84;;;1.70;100.00
45357;BME280;31092;51.924;21.448;2023-02-02T05:30:28;98998.09;;;1.74;100.00
45357;BME280;31092;51.924;21.448;2023-02-02T05:32:53;98956.34;;;1.47;100.00
45357;BME280;31092;51.924;21.448;2023-02-02T05:35:19;98974.50;;;1.61;100.00
45357;BME280;31092;51.924;21.448;2023-02-02T05:37:44;99015.84;;;1.74;100.00
45357;BME280;31092;51.924;21.448;2023-02-02T05:40:10;99012.50;;;1.81;100.00
45357;BME280;31092;51.924;21.448;2023-02-02T05:42:35;99020.88;;;1.86;100.00
45357;BME280;31092;51.924;21.448;2023-02-02T05:45:01;98948.38;;;1.37;100.00
45357;BME280;31092;51.924;21.448;2023-02-02T05:47:26;98969.34;;;1.50;100.00
45357;BME280;31092;51.924;21.448;2023-02-02T05:49:52;99021.16;;;1.74;100.00
45357;BME280;31092;51.924;21.448;2023-02-02T05:52:20;98994.75;;;1.62;100.00
45357;BME280;31092;51.924;21.448;2023-02-02T05:54:46;98944.06;;;1.36;100.00
45357;BME280;31092;51.924;21.448;2023-02-02T05:57:12;99052.88;;;1.95;100.00
45357;BME280;31092;51.924;21.448;2023-02-02T05:59:37;99006.66;;;1.68;100.00
45357;BME280;31092;51.924;21.448;2023-02-02T06:02:02;99027.44;;;1.92;100.00
45357;BME280;31092;51.924;21.448;2023-02-02T06:04:28;98923.25;;;1.22;100.00
45357;BME280;31092;51.924;21.448;2023-02-02T06:06:53;98970.31;;;1.49;100.00
45357;BME280;31092;51.924;21.448;2023-02-02T06:09:19;98959.44;;;1.42;100.00
45357;BME280;31092;51.924;21.448;2023-02-02T06:11:45;99033.59;;;1.83;100.00
45357;BME280;31092;51.924;21.448;2023-02-02T06:14:10;99013.91;;;1.76;100.00
45357;BME280;31092;51.924;21.448;2023-02-02T06:16:36;99064.91;;;1.99;100.00
45357;BME280;31092;51.924;21.448;2023-02-02T06:19:02;99045.47;;;1.88;100.00
45357;BME280;31092;51.924;21.448;2023-02-02T06:21:28;98983.56;;;1.49;100.00
45357;BME280;31092;51.924;21.448;2023-02-02T06:23:55;98966.53;;;1.42;100.00
45357;BME280;31092;51.924;21.448;2023-02-02T06:26:21;99021.16;;;1.74;100.00
45357;BME280;31092;51.924;21.448;2023-02-02T06:28:49;99034.28;;;1.85;100.00
45357;BME280;31092;51.924;21.448;2023-02-02T06:31:15;99034.16;;;1.86;100.00
45357;BME280;31092;51.924;21.448;2023-02-02T06:33:44;99031.78;;;1.93;100.00
45357;BME280;31092;51.924;21.448;2023-02-02T06:36:10;98965.16;;;1.48;100.00
45357;BME280;31092;51.924;21.448;2023-02-02T06:38:36;99051.22;;;2.03;100.00
45357;BME280;31092;51.924;21.448;2023-02-02T06:41:02;99067.56;;;2.08;100.00
45357;BME280;31092;51.924;21.448;2023-02-02T06:43:28;99049.78;;;1.99;100.00
45357;BME280;31092;51.924;21.448;2023-02-02T06:45:55;98968.66;;;1.58;100.00
45357;BME280;31092;51.924;21.448;2023-02-02T06:48:21;98933.47;;;1.36;100.00
45357;BME280;31092;51.924;21.448;2023-02-02T06:50:46;98970.03;;;1.62;100.00
45357;BME280;31092;51.924;21.448;2023-02-02T06:53:12;99040.72;;;2.02;100.00
45357;BME280;31092;51.924;21.448;2023-02-02T06:55:37;98976.06;;;1.64;100.00
45357;BME280;31092;51.924;21.448;2023-02-02T06:58:03;98987.91;;;1.79;100.00
45357;BME280;31092;51.924;21.448;2023-02-02T07:00:28;99019.06;;;1.97;100.00
45357;BME280;31092;51.924;21.448;2023-02-02T07:02:55;98991.81;;;1.85;100.00
45357;BME280;31092;51.924;21.448;2023-02-02T07:05:20;99058.47;;;2.21;100.00
45357;BME280;31092;51.924;21.448;2023-02-02T07:07:49;99054.00;;;2.21;100.00
45357;BME280;31092;51.924;21.448;2023-02-02T07:10:15;98967.13;;;1.75;100.00
45357;BME280;31092;51.924;21.448;2023-02-02T07:12:41;98971.56;;;1.74;100.00
45357;BME280;31092;51.924;21.448;2023-02-02T07:15:07;98950.47;;;1.73;100.00
45357;BME280;31092;51.924;21.448;2023-02-02T07:17:32;98967.50;;;1.80;100.00
45357;BME280;31092;51.924;21.448;2023-02-02T07:19:58;99006.19;;;2.11;100.00
45357;BME280;31092;51.924;21.448;2023-02-02T07:22:23;99014.72;;;2.15;100.00
45357;BME280;31092;51.924;21.448;2023-02-02T07:24:49;98956.06;;;1.89;100.00
45357;BME280;31092;51.924;21.448;2023-02-02T07:27:14;98954.38;;;1.88;100.00
45357;BME280;31092;51.924;21.448;2023-02-02T07:29:39;99045.72;;;2.34;100.00
45357;BME280;31092;51.924;21.448;2023-02-02T07:32:05;99054.25;;;2.37;100.00
45357;BME280;31092;51.924;21.448;2023-02-02T07:34:30;98974.66;;;1.89;100.00
45357;BME280;31092;51.924;21.448;2023-02-02T07:36:56;98985.22;;;1.99;100.00
45357;BME280;31092;51.924;21.448;2023-02-02T07:39:22;98959.94;;;1.85;100.00
45357;BME280;31092;51.924;21.448;2023-02-02T07:41:47;99025.47;;;2.23;100.00
45357;BME280;31092;51.924;21.448;2023-02-02T07:44:13;98956.63;;;1.92;100.00
45357;BME280;31092;51.924;21.448;2023-02-02T07:46:41;98977.97;;;2.01;100.00
45357;BME280;31092;51.924;21.448;2023-02-02T07:49:06;99028.09;;;2.33;100.00
45357;BME280;31092;51.924;21.448;2023-02-02T07:51:32;98928.13;;;1.75;100.00
45357;BME280;31092;51.924;21.448;2023-02-02T07:53:57;99019.88;;;2.26;100.00
45357;BME280;31092;51.924;21.448;2023-02-02T07:56:25;98961.22;;;1.90;100.00
45357;BME280;31092;51.924;21.448;2023-02-02T07:58:53;98950.88;;;1.78;100.00
45357;BME280;31092;51.924;21.448;2023-02-02T08:01:20;99017.22;;;2.16;100.00
45357;BME280;31092;51.924;21.448;2023-02-02T08:03:47;98938.19;;;1.62;100.00
45357;BME280;31092;51.924;21.448;2023-02-02T08:06:17;98995.84;;;1.99;100.00
45357;BME280;31092;51.924;21.448;2023-02-02T08:08:43;98953.56;;;1.68;100.00
45357;BME280;31092;51.924;21.448;2023-02-02T08:11:10;98939.72;;;1.55;100.00
45357;BME280;31092;51.924;21.448;2023-02-02T08:13:37;98930.50;;;1.49;100.00
45357;BME280;31092;51.924;21.448;2023-02-02T08:16:04;99028.84;;;2.06;100.00
45357;BME280;31092;51.924;21.448;2023-02-02T08:18:29;99011.94;;;1.97;100.00
45357;BME280;31092;51.924;21.448;2023-02-02T08:20:57;98943.38;;;1.54;100.00
45357;BME280;31092;51.924;21.448;2023-02-02T08:23:23;98956.34;;;1.66;100.00
45357;BME280;31092;51.924;21.448;2023-02-02T08:25:49;99003.81;;;1.99;100.00
45357;BME280;31092;51.924;21.448;2023-02-02T08:28:16;98959.00;;;1.76;100.00
45357;BME280;31092;51.924;21.448;2023-02-02T08:30:41;98969.47;;;1.78;100.00
45357;BME280;31092;51.924;21.448;2023-02-02T08:33:07;98994.03;;;1.99;100.00
45357;BME280;31092;51.924;21.448;2023-02-02T08:35:32;98987.88;;;1.99;100.00
45357;BME280;31092;51.924;21.448;2023-02-02T08:37:58;99009.97;;;2.09;100.00
45357;BME280;31092;51.924;21.448;2023-02-02T08:40:27;98995.72;;;2.00;100.00
45357;BME280;31092;51.924;21.448;2023-02-02T08:42:53;98916.69;;;1.55;100.00
45357;BME280;31092;51.924;21.448;2023-02-02T08:45:19;99020.19;;;2.13;100.00
45357;BME280;31092;51.924;21.448;2023-02-02T08:47:45;98940.41;;;1.76;100.00
45357;BME280;31092;51.924;21.448;2023-02-02T08:50:10;98924.09;;;1.71;100.00
45357;BME280;31092;51.924;21.448;2023-02-02T08:52:36;98913.03;;;1.66;100.00
45357;BME280;31092;51.924;21.448;2023-02-02T08:55:03;99019.88;;;2.26;100.00
45357;BME280;31092;51.924;21.448;2023-02-02T08:57:29;98972.09;;;1.97;100.00
45357;BME280;31092;51.924;21.448;2023-02-02T08:59:57;99033.97;;;2.27;100.00
45357;BME280;31092;51.924;21.448;2023-02-02T09:02:23;98925.75;;;1.72;100.00
45357;BME280;31092;51.924;21.448;2023-02-02T09:04:48;98933.56;;;1.74;100.00
45357;BME280;31092;51.924;21.448;2023-02-02T09:07:14;99017.91;;;2.28;100.00
45357;BME280;31092;51.924;21.448;2023-02-02T09:09:39;99040.00;;;2.38;100.00
45357;BME280;31092;51.924;21.448;2023-02-02T09:12:04;98940.69;;;1.83;100.00
45357;BME280;31092;51.924;21.448;2023-02-02T09:14:30;99032.84;;;2.39;100.00
45357;BME280;31092;51.924;21.448;2023-02-02T09:16:55;99022.78;;;2.33;100.00
45357;BME280;31092;51.924;21.448;2023-02-02T09:19:21;98922.53;;;1.78;100.00
45357;BME280;31092;51.924;21.448;2023-02-02T09:21:48;98954.34;;;1.98;100.00
45357;BME280;31092;51.924;21.448;2023-02-02T09:24:14;98950.44;;;1.92;100.00
45357;BME280;31092;51.924;21.448;2023-02-02T09:26:41;99031.72;;;2.42;100.00
45357;BME280;31092;51.924;21.448;2023-02-02T09:29:11;99016.38;;;2.35;100.00
45357;BME280;31092;51.924;21.448;2023-02-02T09:31:37;98997.06;;;2.24;100.00
45357;BME280;31092;51.924;21.448;2023-02-02T09:34:05;98958.28;;;2.03;100.00
45357;BME280;31092;51.924;21.448;2023-02-02T09:36:31;98995.94;;;2.26;100.00
45357;BME280;31092;51.924;21.448;2023-02-02T09:38:57;98996.09;;;2.25;100.00
45357;BME280;31092;51.924;21.448;2023-02-02T09:46:51;98937.84;;;2.04;100.00
45357;BME280;31092;51.924;21.448;2023-02-02T09:52:01;99030.69;;;2.52;100.00
45357;BME280;31092;51.924;21.448;2023-02-02T09:54:34;99007.13;;;2.39;100.00
45357;BME280;31092;51.924;21.448;2023-02-02T09:57:07;98915.69;;;1.85;100.00
45357;BME280;31092;51.924;21.448;2023-02-02T09:59:39;98956.84;;;2.09;100.00
45357;BME280;31092;51.924;21.448;2023-02-02T10:02:14;99028.19;;;2.51;100.00
45357;BME280;31092;51.924;21.448;2023-02-02T10:04:45;99024.56;;;2.52;100.00
45357;BME280;31092;51.924;21.448;2023-02-02T10:07:19;98976.00;;;2.12;100.00
45357;BME280;31092;51.924;21.448;2023-02-02T10:09:56;99048.47;;;2.61;100.00
45357;BME280;31092;51.924;21.448;2023-02-02T10:12:35;99052.09;;;2.60;100.00
45357;BME280;31092;51.924;21.448;2023-02-02T10:20:36;98971.13;;;2.08;100.00
45357;BME280;31092;51.924;21.448;2023-02-02T10:23:12;98966.38;;;2.02;100.00
45357;BME280;31092;51.924;21.448;2023-02-02T10:25:47;99043.59;;;2.47;100.00
45357;BME280;31092;51.924;21.448;2023-02-02T10:28:23;99069.44;;;2.55;100.00
45357;BME280;31092;51.924;21.448;2023-02-02T10:30:59;99009.22;;;2.26;100.00
45357;BME280;31092;51.924;21.448;2023-02-02T10:38:59;99072.22;;;2.63;100.00
45357;BME280;31092;51.924;21.448;2023-02-02T10:41:43;99060.81;;;2.53;100.00
45357;BME280;31092;51.924;21.448;2023-02-02T10:44:22;99080.19;;;2.63;100.00
45357;BME280;31092;51.924;21.448;2023-02-02T10:46:58;98987.88;;;2.08;100.00
45357;BME280;31092;51.924;21.448;2023-02-02T10:49:29;99088.50;;;2.60;100.00
45357;BME280;31092;51.924;21.448;2023-02-02T11:02:46;99003.13;;;1.97;100.00
45357;BME280;31092;51.924;21.448;2023-02-02T11:05:16;99093.38;;;2.45;100.00
45357;BME280;31092;51.924;21.448;2023-02-02T11:08:13;99073.56;;;2.30;100.00
45357;BME280;31092;51.924;21.448;2023-02-02T11:10:39;99019.06;;;1.97;100.00
45357;BME280;31092;51.924;21.448;2023-02-02T11:13:06;99092.44;;;2.36;100.00
45357;BME280;31092;51.924;21.448;2023-02-02T11:15:33;98999.22;;;1.81;100.00
45357;BME280;31092;51.924;21.448;2023-02-02T11:18:26;99092.84;;;2.32;100.00
45357;BME280;31092;51.924;21.448;2023-02-02T11:20:52;99090.06;;;2.33;100.00
45357;BME280;31092;51.924;21.448;2023-02-02T11:23:19;99124.31;;;2.46;100.00
45357;BME280;31092;51.924;21.448;2023-02-02T11:25:56;99087.00;;;2.28;100.00
45357;BME280;31092;51.924;21.448;2023-02-02T11:28:24;99014.59;;;1.87;100.00
45357;BME280;31092;51.924;21.448;2023-02-02T11:31:04;99041.44;;;2.04;100.00
45357;BME280;31092;51.924;21.448;2023-02-02T11:33:35;99030.09;;;2.02;100.00
45357;BME280;31092;51.924;21.448;2023-02-02T11:36:03;99032.75;;;2.02;100.00
45357;BME280;31092;51.924;21.448;2023-02-02T11:38:30;99063.63;;;2.22;100.00
45357;BME280;31092;51.924;21.448;2023-02-02T11:41:05;99141.88;;;2.67;100.00
45357;BME280;31092;51.924;21.448;2023-02-02T11:43:36;99145.09;;;2.70;100.00
45357;BME280;31092;51.924;21.448;2023-02-02T11:46:25;99155.63;;;2.72;100.00
45357;BME280;31092;51.924;21.448;2023-02-02T11:49:15;99104.72;;;2.37;100.00
45357;BME280;31092;51.924;21.448;2023-02-02T11:52:07;99130.19;;;2.50;100.00
45357;BME280;31092;51.924;21.448;2023-02-02T11:54:34;99058.06;;;1.96;100.00
45357;BME280;31092;51.924;21.448;2023-02-02T11:57:02;99145.41;;;2.48;100.00
45357;BME280;31092;51.924;21.448;2023-02-02T11:59:38;99146.84;;;2.42;100.00
45357;BME280;31092;51.924;21.448;2023-02-02T12:04:46;99162.06;;;2.40;100.00
45357;BME280;31092;51.924;21.448;2023-02-02T12:07:41;99176.06;;;2.42;100.00
45357;BME280;31092;51.924;21.448;2023-02-02T12:10:18;99155.22;;;2.37;100.00
45357;BME280;31092;51.924;21.448;2023-02-02T12:16:00;99193.81;;;2.51;100.00
45357;BME280;31092;51.924;21.448;2023-02-02T12:26:59;99164.44;;;2.14;100.00
45357;BME280;31092;51.924;21.448;2023-02-02T12:35:50;99226.81;;;2.49;100.00
45357;BME280;31092;51.924;21.448;2023-02-02T12:38:03;99235.38;;;2.43;100.00
45357;BME280;31092;51.924;21.448;2023-02-02T12:43:43;99219.09;;;2.16;100.00
45357;BME280;31092;51.924;21.448;2023-02-02T12:52:00;99258.69;;;2.29;100.00
45357;BME280;31092;51.924;21.448;2023-02-02T12:57:22;99274.78;;;2.37;100.00
45357;BME280;31092;51.924;21.448;2023-02-02T13:00:15;99263.78;;;2.42;100.00
45357;BME280;31092;51.924;21.448;2023-02-02T13:02:59;99269.91;;;2.43;100.00
45357;BME280;31092;51.924;21.448;2023-02-02T13:08:11;99190.66;;;1.88;100.00
45357;BME280;31092;51.924;21.448;2023-02-02T13:10:47;99204.13;;;1.96;100.00
45357;BME280;31092;51.924;21.448;2023-02-02T13:13:25;99172.34;;;1.75;100.00
45357;BME280;31092;51.924;21.448;2023-02-02T13:15:57;99215.97;;;1.92;100.00
45357;BME280;31092;51.924;21.448;2023-02-02T13:18:34;99204.34;;;1.83;100.00
45357;BME280;31092;51.924;21.448;2023-02-02T13:21:05;99202.13;;;1.79;100.00
45357;BME280;31092;51.924;21.448;2023-02-02T13:24:00;99219.75;;;1.89;100.00
45357;BME280;31092;51.924;21.448;2023-02-02T13:26:27;99297.16;;;2.25;100.00
45357;BME280;31092;51.924;21.448;2023-02-02T13:32:20;99324.31;;;2.38;100.00
45357;BME280;31092;51.924;21.448;2023-02-02T13:34:59;99249.25;;;1.96;100.00
45357;BME280;31092;51.924;21.448;2023-02-02T13:37:41;99292.09;;;2.22;100.00
45357;BME280;31092;51.924;21.448;2023-02-02T13:59:09;99368.75;;;1.96;100.00
45357;BME280;31092;51.924;21.448;2023-02-02T14:01:41;99311.75;;;1.70;100.00
45357;BME280;31092;51.924;21.448;2023-02-02T14:04:19;99337.81;;;1.85;100.00
45357;BME280;31092;51.924;21.448;2023-02-02T14:06:55;99330.50;;;1.78;100.00
45357;BME280;31092;51.924;21.448;2023-02-02T14:09:28;99328.72;;;1.78;100.00
45357;BME280;31092;51.924;21.448;2023-02-02T14:11:57;99427.19;;;2.27;100.00
45357;BME280;31092;51.924;21.448;2023-02-02T14:14:23;99312.56;;;1.60;100.00
45357;BME280;31092;51.924;21.448;2023-02-02T14:17:03;99404.78;;;2.20;100.00
45357;BME280;31092;51.924;21.448;2023-02-02T14:24:39;99425.25;;;2.29;100.00
45357;BME280;31092;51.924;21.448;2023-02-02T14:34:38;99409.44;;;1.97;100.00
45357;BME280;31092;51.924;21.448;2023-02-02T14:39:52;99483.06;;;2.36;100.00
45357;BME280;31092;51.924;21.448;2023-02-02T14:45:37;99409.13;;;1.90;100.00
45357;BME280;31092;51.924;21.448;2023-02-02T14:58:27;99424.91;;;1.71;100.00
45357;BME280;31092;51.924;21.448;2023-02-02T15:01:06;99420.38;;;1.61;100.00
45357;BME280;31092;51.924;21.448;2023-02-02T15:06:05;99547.00;;;2.24;100.00
45357;BME280;31092;51.924;21.448;2023-02-02T15:08:37;99447.19;;;1.58;100.00
45357;BME280;31092;51.924;21.448;2023-02-02T15:11:07;99516.59;;;2.07;100.00
45357;BME280;31092;51.924;21.448;2023-02-02T15:13:56;99479.47;;;1.75;100.00
45357;BME280;31092;51.924;21.448;2023-02-02T15:16:29;99478.72;;;1.73;100.00
45357;BME280;31092;51.924;21.448;2023-02-02T15:19:17;99483.69;;;1.66;100.00
45357;BME280;31092;51.924;21.448;2023-02-02T15:21:46;99554.97;;;2.03;100.00
45357;BME280;31092;51.924;21.448;2023-02-02T15:24:18;99581.50;;;2.14;100.00
45357;BME280;31092;51.924;21.448;2023-02-02T15:26:46;99467.03;;;1.43;100.00